Time;durP1;ratioP1;P1;durP2;ratioP2;P2;SDS_P1;SDS_P2;PMS_P1;PMS_P2;Temp;Humidity;BMP_temperature;BMP_pressure;BME280_temperature;BME280_humidity;BME280_pressure;Samples;Min_cycle;Max_cycle;Signal;HPM_P1;HPM_P2
2023/05/12 00:02:05;;;;;;;26.40;20.30;;;14.20;99.90;;;;;;5070477;28;20111;-61
2023/05/12 00:04:31;;;;;;;33.97;22.83;;;14.20;99.90;;;;;;5070391;28;20409;-61
2023/05/12 00:06:56;;;;;;;27.40;20.17;;;16.20;99.90;;;;;;5058377;28;20110;-61
2023/05/12 00:09:22;;;;;;;29.52;20.35;;;14.20;99.90;;;;;;5059675;28;20283;-61
2023/05/12 00:11:48;;;;;;;22.13;16.17;;;14.60;99.90;;;;;;5069358;28;20043;-61
2023/05/12 00:14:14;;;;;;;27.58;17.50;;;14.80;99.90;;;;;;5070463;28;20048;-62
2023/05/12 00:16:40;;;;;;;27.40;16.83;;;15.10;99.90;;;;;;5070537;28;20044;-62
2023/05/12 00:19:06;;;;;;;26.20;16.85;;;15.80;99.90;;;;;;5069383;28;20483;-62
2023/05/12 00:21:31;;;;;;;23.95;16.63;;;16.30;99.90;;;;;;5069620;28;20032;-62
2023/05/12 00:23:57;;;;;;;25.02;17.50;;;15.80;99.90;;;;;;5085831;28;20040;-62
2023/05/12 00:26:22;;;;;;;21.33;15.70;;;16.20;99.90;;;;;;5063779;28;20075;-62
2023/05/12 00:28:48;;;;;;;26.23;18.40;;;14.50;99.90;;;;;;5054627;28;20097;-62
2023/05/12 00:31:14;;;;;;;24.17;17.75;;;15.50;99.90;;;;;;5068775;28;20048;-62
2023/05/12 00:33:40;;;;;;;25.42;19.65;;;16.30;99.90;;;;;;5048040;28;20041;-63
2023/05/12 00:36:06;;;;;;;26.63;21.88;;;14.30;99.90;;;;;;5048700;28;20041;-62
2023/05/12 00:38:33;;;;;;;31.42;22.02;;;16.10;99.90;;;;;;5048563;28;20079;-63
2023/05/12 00:40:59;;;;;;;28.73;23.17;;;16.00;99.90;;;;;;5067605;28;20136;-62
2023/05/12 00:43:25;;;;;;;27.67;21.45;;;14.40;99.90;;;;;;5070133;28;20040;-62
2023/05/12 00:45:51;;;;;;;25.63;19.90;;;15.50;99.90;;;;;;5068706;28;20504;-62
2023/05/12 00:48:17;;;;;;;25.95;19.20;;;14.20;99.90;;;;;;5067543;28;20055;-62
2023/05/12 00:50:43;;;;;;;23.55;18.25;;;15.70;99.90;;;;;;5068440;28;20135;-62
2023/05/12 00:53:08;;;;;;;22.02;17.00;;;15.30;99.90;;;;;;5050306;28;20098;-63
2023/05/12 00:55:36;;;;;;;20.33;15.80;;;15.70;99.90;;;;;;5048639;28;20388;-63
2023/05/12 00:58:02;;;;;;;20.20;15.05;;;16.40;99.90;;;;;;5054481;28;20032;-64
2023/05/12 01:00:28;;;;;;;23.00;15.98;;;14.50;99.90;;;;;;5065565;28;20048;-63
2023/05/12 01:02:57;;;;;;;24.10;17.90;;;17.00;99.90;;;;;;5066883;28;20414;-63
2023/05/12 01:05:26;;;;;;;23.38;18.67;;;15.20;99.90;;;;;;5068889;28;20052;-63
2023/05/12 01:07:52;;;;;;;24.02;18.00;;;14.30;99.90;;;;;;5053624;28;20040;-63
2023/05/12 01:10:20;;;;;;;28.17;18.58;;;16.20;99.90;;;;;;5068425;28;20041;-63
2023/05/12 01:12:46;;;;;;;23.10;16.67;;;14.30;99.90;;;;;;5069706;28;20450;-63
2023/05/12 01:15:12;;;;;;;23.63;18.20;;;14.70;99.90;;;;;;5051600;28;20052;-63
2023/05/12 01:17:42;;;;;;;26.48;19.48;;;16.10;99.90;;;;;;5067004;28;20044;-63
2023/05/12 01:20:10;;;;;;;26.20;19.88;;;15.40;99.90;;;;;;5069537;28;20045;-63
2023/05/12 01:22:36;;;;;;;35.92;21.67;;;14.80;99.90;;;;;;5051952;28;20063;-63
2023/05/12 01:25:04;;;;;;;30.90;21.08;;;16.60;99.90;;;;;;5048347;28;20151;-63
2023/05/12 01:27:31;;;;;;;33.47;20.05;;;15.10;99.90;;;;;;5050104;28;20388;-63
2023/05/12 01:29:59;;;;;;;36.13;21.23;;;16.70;99.90;;;;;;5068147;28;20055;-63
2023/05/12 01:32:25;;;;;;;31.90;22.77;;;15.80;99.90;;;;;;5066205;28;20044;-63
2023/05/12 01:34:51;;;;;;;30.08;21.70;;;16.00;99.90;;;;;;5068035;28;20110;-63
2023/05/12 01:37:17;;;;;;;34.75;22.20;;;15.00;99.90;;;;;;5055350;28;20053;-63
2023/05/12 01:39:42;;;;;;;33.60;21.15;;;16.20;99.90;;;;;;5048406;28;20053;-63
2023/05/12 01:42:08;;;;;;;27.00;19.23;;;16.50;99.90;;;;;;5061840;28;20083;-63
2023/05/12 01:44:33;;;;;;;30.98;20.90;;;14.50;99.90;;;;;;5067105;28;20464;-63
2023/05/12 01:47:00;;;;;;;29.92;20.83;;;16.90;99.90;;;;;;5068850;28;20052;-63
2023/05/12 01:49:26;;;;;;;34.65;19.67;;;14.50;99.90;;;;;;5063740;28;20049;-63
2023/05/12 01:51:51;;;;;;;29.95;21.45;;;16.10;99.90;;;;;;5058256;28;20450;-63
2023/05/12 01:54:17;;;;;;;31.70;20.25;;;16.50;99.90;;;;;;5067471;28;20101;-63
2023/05/12 01:56:42;;;;;;;40.67;21.13;;;16.40;99.90;;;;;;5060933;28;20086;-63
2023/05/12 01:59:08;;;;;;;36.00;22.92;;;15.60;99.90;;;;;;5051661;28;20040;-62
2023/05/12 02:01:34;;;;;;;35.67;22.52;;;15.30;99.90;;;;;;5069185;28;20458;-63
2023/05/12 02:03:59;;;;;;;35.30;22.40;;;14.80;99.90;;;;;;5066553;28;20375;-63
2023/05/12 02:06:26;;;;;;;31.63;22.23;;;14.90;99.90;;;;;;5065935;28;20045;-63
2023/05/12 02:08:51;;;;;;;30.15;22.70;;;16.10;99.90;;;;;;5059400;28;20044;-62
2023/05/12 02:11:17;;;;;;;34.13;24.20;;;17.10;99.90;;;;;;5068836;28;20033;-62
2023/05/12 02:13:43;;;;;;;30.92;23.58;;;14.60;99.90;;;;;;5066689;28;20079;-63
2023/05/12 02:16:09;;;;;;;32.38;21.05;;;16.90;99.90;;;;;;5067230;28;20041;-62
2023/05/12 02:18:35;;;;;;;28.45;21.30;;;16.50;99.90;;;;;;5060560;28;20041;-63
2023/05/12 02:21:01;;;;;;;30.42;20.50;;;16.30;99.90;;;;;;5058128;28;20402;-62
2023/05/12 02:23:26;;;;;;;42.58;24.42;;;14.50;99.90;;;;;;5067201;28;20060;-62
2023/05/12 02:25:52;;;;;;;34.42;23.80;;;16.80;99.90;;;;;;5067369;28;20132;-63
2023/05/12 02:28:17;;;;;;;33.97;23.77;;;14.70;99.90;;;;;;5068555;28;20045;-63
2023/05/12 02:30:47;;;;;;;38.42;24.23;;;14.60;99.90;;;;;;5068436;28;20053;-62
2023/05/12 02:33:14;;;;;;;37.22;23.77;;;14.90;99.90;;;;;;5065033;28;20150;-62
2023/05/12 02:35:39;;;;;;;30.90;22.40;;;16.30;99.90;;;;;;5060216;28;20044;-62
2023/05/12 02:38:05;;;;;;;34.47;22.60;;;15.10;99.90;;;;;;5072243;28;20105;-62
2023/05/12 02:40:30;;;;;;;34.75;22.83;;;14.50;99.90;;;;;;5072707;28;20068;-62
2023/05/12 02:42:56;;;;;;;36.55;23.30;;;16.90;99.90;;;;;;5071530;28;20494;-62
2023/05/12 02:45:22;;;;;;;30.67;20.83;;;15.00;99.90;;;;;;5069096;28;20040;-62
2023/05/12 02:47:47;;;;;;;31.60;22.58;;;16.40;99.90;;;;;;5057951;28;20041;-62
2023/05/12 02:50:13;;;;;;;31.02;22.67;;;14.80;99.90;;;;;;5059504;28;20123;-62
2023/05/12 02:52:39;;;;;;;40.80;22.15;;;17.20;99.90;;;;;;5066226;28;20036;-62
2023/05/12 02:55:05;;;;;;;39.78;25.05;;;14.70;99.90;;;;;;5070872;28;20450;-62
2023/05/12 02:57:32;;;;;;;36.35;24.83;;;15.50;99.90;;;;;;5062222;28;20041;-63
2023/05/12 02:59:59;;;;;;;39.35;25.33;;;17.00;99.90;;;;;;5050768;28;20067;-62
2023/05/12 03:02:25;;;;;;;45.53;29.15;;;16.70;99.90;;;;;;5068568;28;20470;-62
2023/05/12 03:04:50;;;;;;;43.00;28.88;;;15.00;99.90;;;;;;5064147;28;20179;-62
2023/05/12 03:07:16;;;;;;;40.17;27.48;;;15.90;99.90;;;;;;5059241;28;20075;-62
2023/05/12 03:09:41;;;;;;;54.17;33.53;;;14.80;99.90;;;;;;5070175;28;20394;-62
2023/05/12 03:12:07;;;;;;;53.60;34.50;;;17.40;99.90;;;;;;5064456;28;20045;-62
2023/05/12 03:14:33;;;;;;;61.90;36.53;;;14.60;99.90;;;;;;5064687;28;20044;-62
2023/05/12 03:16:58;;;;;;;67.00;40.15;;;14.60;99.90;;;;;;5070597;28;20497;-62
2023/05/12 03:19:24;;;;;;;69.18;41.40;;;17.40;99.90;;;;;;5065852;28;20045;-63
2023/05/12 03:21:49;;;;;;;66.78;39.20;;;16.80;99.90;;;;;;5071008;28;20040;-62
2023/05/12 03:24:15;;;;;;;70.85;41.00;;;17.50;99.90;;;;;;5071512;28;20131;-62
2023/05/12 03:26:41;;;;;;;67.53;41.03;;;16.60;99.90;;;;;;5071468;28;20105;-62
2023/05/12 03:29:07;;;;;;;86.68;44.22;;;17.20;99.90;;;;;;5069337;28;20513;-62
2023/05/12 03:31:33;;;;;;;78.85;43.33;;;17.30;99.90;;;;;;5066553;28;20120;-62
2023/05/12 03:33:58;;;;;;;79.50;43.78;;;16.90;99.90;;;;;;5051076;28;20207;-62
2023/05/12 03:36:24;;;;;;;81.75;43.50;;;16.60;99.90;;;;;;5066396;28;20093;-62
2023/05/12 03:38:49;;;;;;;83.75;45.88;;;17.30;99.90;;;;;;5070934;28;20390;-63
2023/05/12 03:41:16;;;;;;;80.95;44.10;;;15.70;99.90;;;;;;5071110;28;20056;-62
2023/05/12 03:43:41;;;;;;;90.10;47.25;;;17.60;99.90;;;;;;5068847;28;20053;-62
2023/05/12 03:46:07;;;;;;;91.28;48.05;;;17.00;99.90;;;;;;5069426;28;20401;-62
2023/05/12 03:48:33;;;;;;;79.60;47.63;;;15.90;99.90;;;;;;5070975;28;20045;-62
2023/05/12 03:50:58;;;;;;;89.07;48.60;;;14.90;99.90;;;;;;5052191;28;20518;-63
2023/05/12 03:53:24;;;;;;;97.13;52.58;;;15.40;99.90;;;;;;5071260;28;20040;-62
2023/05/12 03:55:50;;;;;;;100.00;52.50;;;15.70;99.90;;;;;;5062125;28;20723;-62
2023/05/12 03:58:15;;;;;;;114.28;56.13;;;17.40;99.90;;;;;;5068699;28;20044;-62
2023/05/12 04:00:41;;;;;;;119.80;57.05;;;17.80;99.90;;;;;;5063305;28;20126;-63
2023/05/12 04:03:06;;;;;;;121.93;57.70;;;15.80;99.90;;;;;;5049493;28;20033;-62
2023/05/12 04:05:32;;;;;;;107.05;56.10;;;17.10;99.90;;;;;;5059816;28;20044;-62
2023/05/12 04:07:58;;;;;;;105.57;55.70;;;16.80;99.90;;;;;;5063186;28;20123;-63
2023/05/12 04:10:23;;;;;;;114.28;59.85;;;15.40;99.90;;;;;;5069176;28;20094;-62
2023/05/12 04:12:49;;;;;;;122.40;58.90;;;16.10;99.90;;;;;;5070695;28;20032;-62
2023/05/12 04:15:14;;;;;;;108.03;57.25;;;14.90;99.90;;;;;;5067692;28;20062;-62
2023/05/12 04:17:40;;;;;;;119.35;56.10;;;16.80;99.90;;;;;;5068816;28;20048;-63
2023/05/12 04:20:06;;;;;;;115.45;56.22;;;15.00;99.90;;;;;;5062595;28;20552;-62
2023/05/12 04:22:32;;;;;;;119.53;57.65;;;17.10;99.90;;;;;;5050357;28;20041;-62
2023/05/12 04:24:58;;;;;;;109.75;55.38;;;17.70;99.90;;;;;;5050470;28;20040;-63
2023/05/12 04:27:23;;;;;;;114.22;56.42;;;15.10;99.90;;;;;;5053412;28;20033;-63
2023/05/12 04:29:49;;;;;;;112.40;55.30;;;16.60;99.90;;;;;;5066493;28;20179;-62
2023/05/12 04:32:14;;;;;;;117.30;55.60;;;17.20;99.90;;;;;;5048994;28;20099;-62
2023/05/12 04:34:40;;;;;;;114.70;56.65;;;15.00;99.90;;;;;;5057238;28;20044;-62
2023/05/12 04:37:06;;;;;;;114.70;56.63;;;17.90;99.90;;;;;;5070218;28;20486;-62
2023/05/12 04:39:31;;;;;;;114.90;54.38;;;16.50;99.90;;;;;;5069868;28;20095;-62
2023/05/12 04:41:59;;;;;;;109.55;54.75;;;16.10;99.90;;;;;;5032558;28;20056;-62
2023/05/12 04:44:25;;;;;;;111.43;56.22;;;17.50;99.90;;;;;;5051241;28;20106;-62
2023/05/12 04:46:54;;;;;;;114.43;56.40;;;16.00;99.90;;;;;;5051854;28;20041;-62
2023/05/12 04:49:20;;;;;;;126.15;56.70;;;18.00;99.90;;;;;;5068056;28;20040;-62
2023/05/12 04:51:46;;;;;;;121.60;58.13;;;17.30;99.90;;;;;;5068486;28;20040;-62
2023/05/12 04:54:12;;;;;;;116.35;55.22;;;16.50;99.90;;;;;;5069424;28;20071;-63
2023/05/12 04:56:37;;;;;;;122.88;57.22;;;15.30;99.90;;;;;;5052523;28;20037;-62
2023/05/12 04:59:03;;;;;;;121.93;56.85;;;15.10;99.90;;;;;;5069691;28;20040;-62
2023/05/12 05:01:28;;;;;;;124.40;57.83;;;15.20;99.90;;;;;;5054369;28;20060;-63
2023/05/12 05:03:54;;;;;;;116.05;56.25;;;15.10;99.90;;;;;;5052992;28;20040;-62
2023/05/12 05:06:20;;;;;;;121.65;58.35;;;18.00;99.90;;;;;;5068884;28;20036;-63
2023/05/12 05:08:45;;;;;;;116.75;57.33;;;15.90;99.90;;;;;;5069244;28;20040;-63
2023/05/12 05:11:11;;;;;;;116.72;58.65;;;18.20;99.90;;;;;;5057992;28;20134;-62
2023/05/12 05:13:36;;;;;;;113.18;56.38;;;18.10;99.90;;;;;;5054962;28;20041;-63
2023/05/12 05:16:02;;;;;;;124.22;55.75;;;18.20;99.90;;;;;;5059411;28;20506;-62
2023/05/12 05:18:28;;;;;;;119.03;55.05;;;15.90;99.90;;;;;;5065580;28;20448;-63
2023/05/12 05:20:54;;;;;;;109.13;54.88;;;17.90;99.90;;;;;;5067602;28;20060;-62
2023/05/12 05:23:19;;;;;;;109.80;54.25;;;15.20;99.90;;;;;;5069906;28;20040;-63
2023/05/12 05:25:45;;;;;;;105.40;53.97;;;15.30;99.90;;;;;;5061091;28;20041;-62
2023/05/12 05:28:10;;;;;;;112.57;54.92;;;16.00;99.90;;;;;;5061195;28;20777;-62
2023/05/12 05:30:36;;;;;;;114.28;56.28;;;18.10;99.90;;;;;;5069139;28;20123;-63
2023/05/12 05:33:02;;;;;;;117.38;55.08;;;17.30;99.90;;;;;;5068001;28;20078;-63
2023/05/12 05:35:27;;;;;;;117.32;55.78;;;17.10;99.90;;;;;;5066355;28;20090;-63
2023/05/12 05:37:53;;;;;;;111.30;54.75;;;17.80;99.90;;;;;;5064962;28;20135;-62
2023/05/12 05:40:19;;;;;;;105.85;54.55;;;15.50;99.90;;;;;;5065722;28;20101;-63
2023/05/12 05:42:44;;;;;;;116.60;54.20;;;17.00;99.90;;;;;;5062320;28;20590;-62
2023/05/12 05:45:10;;;;;;;107.20;54.58;;;18.00;99.90;;;;;;5062297;28;20123;-62
2023/05/12 05:47:36;;;;;;;103.03;53.60;;;17.30;99.90;;;;;;5060706;28;20040;-64
2023/05/12 05:50:03;;;;;;;108.30;54.08;;;15.60;99.90;;;;;;5062894;28;20040;-65
2023/05/12 05:52:28;;;;;;;105.60;53.67;;;17.80;99.90;;;;;;5066388;28;20032;-65
2023/05/12 05:54:54;;;;;;;113.25;56.65;;;18.40;99.90;;;;;;5068714;28;20029;-65
2023/05/12 05:57:20;;;;;;;109.47;53.88;;;17.00;99.90;;;;;;5068468;28;20271;-65
2023/05/12 05:59:45;;;;;;;107.53;54.72;;;18.50;99.90;;;;;;5056688;28;20073;-65
2023/05/12 06:02:11;;;;;;;109.20;53.92;;;17.80;99.90;;;;;;5051260;28;20199;-65
2023/05/12 06:04:37;;;;;;;104.53;53.20;;;16.00;99.90;;;;;;5063182;28;20049;-65
2023/05/12 06:07:02;;;;;;;99.63;53.75;;;16.00;99.90;;;;;;5072387;28;20101;-64
2023/05/12 06:09:28;;;;;;;105.43;52.67;;;18.10;99.90;;;;;;5071867;28;20079;-65
2023/05/12 06:11:53;;;;;;;105.88;54.53;;;18.30;99.90;;;;;;5065966;28;20052;-64
2023/05/12 06:14:19;;;;;;;105.30;54.67;;;17.50;99.90;;;;;;5052674;28;20398;-64
2023/05/12 06:16:45;;;;;;;96.00;53.80;;;18.10;99.90;;;;;;5064521;28;20048;-64
2023/05/12 06:19:11;;;;;;;102.15;53.05;;;17.10;99.90;;;;;;5067162;28;20036;-64
2023/05/12 06:21:37;;;;;;;100.65;52.47;;;16.70;99.90;;;;;;5077333;28;20035;-64
2023/05/12 06:24:03;;;;;;;94.47;50.35;;;16.80;99.90;;;;;;5069374;28;20048;-64
2023/05/12 06:26:28;;;;;;;97.78;50.85;;;17.60;99.90;;;;;;5068443;28;20410;-64
2023/05/12 06:28:55;;;;;;;92.28;51.30;;;18.90;99.90;;;;;;5070194;28;20462;-64
2023/05/12 06:31:20;;;;;;;95.88;51.63;;;19.00;99.90;;;;;;5067024;28;20051;-64
2023/05/12 06:33:46;;;;;;;98.22;52.28;;;18.60;99.90;;;;;;5068551;28;20479;-64
2023/05/12 06:36:11;;;;;;;93.47;51.38;;;17.40;99.90;;;;;;5070756;28;20039;-64
2023/05/12 06:38:37;;;;;;;89.38;51.60;;;16.50;99.90;;;;;;5068862;28;20052;-64
2023/05/12 06:41:03;;;;;;;94.95;52.65;;;17.60;99.90;;;;;;5069262;28;20094;-64
2023/05/12 06:43:28;;;;;;;93.13;52.95;;;18.00;99.90;;;;;;5066778;28;20052;-64
2023/05/12 06:45:55;;;;;;;93.20;52.13;;;18.80;99.90;;;;;;5061407;28;20048;-64
2023/05/12 06:48:22;;;;;;;84.97;49.75;;;17.60;99.90;;;;;;5071108;28;20040;-64
2023/05/12 06:50:47;;;;;;;90.88;51.17;;;18.80;99.90;;;;;;5068529;28;20178;-64
2023/05/12 06:53:13;;;;;;;79.82;49.20;;;17.10;99.90;;;;;;5069099;28;20166;-64
2023/05/12 06:55:39;;;;;;;83.32;48.72;;;19.40;99.90;;;;;;5066038;28;20143;-64
2023/05/12 06:58:05;;;;;;;75.82;47.88;;;19.30;99.90;;;;;;5069016;28;20487;-64
2023/05/12 07:00:30;;;;;;;78.43;48.67;;;17.60;99.90;;;;;;5068056;28;20131;-64
2023/05/12 07:02:56;;;;;;;83.65;49.10;;;19.80;99.90;;;;;;5069813;28;20040;-64
2023/05/12 07:05:22;;;;;;;79.88;48.83;;;19.20;99.90;;;;;;5065624;28;20036;-64
2023/05/12 07:07:47;;;;;;;72.07;47.10;;;17.90;99.90;;;;;;5068007;28;20048;-64
2023/05/12 07:10:13;;;;;;;79.18;48.80;;;18.80;99.90;;;;;;5062527;28;20371;-64
2023/05/12 07:12:38;;;;;;;77.25;45.95;;;19.80;99.90;;;;;;5052404;28;20410;-64
2023/05/12 07:15:05;;;;;;;74.68;47.92;;;19.50;99.90;;;;;;5070661;28;20075;-64
2023/05/12 07:17:30;;;;;;;78.57;47.78;;;18.30;99.90;;;;;;5064154;28;20040;-65
2023/05/12 07:19:56;;;;;;;75.00;46.22;;;17.70;99.90;;;;;;5068673;28;20043;-64
2023/05/12 07:22:22;;;;;;;83.97;49.08;;;18.30;99.90;;;;;;5062006;28;20048;-65
2023/05/12 07:24:48;;;;;;;72.00;46.17;;;18.30;99.90;;;;;;5065611;28;20047;-64
2023/05/12 07:27:14;;;;;;;70.07;45.35;;;20.10;99.90;;;;;;5070485;28;20037;-64
2023/05/12 07:29:39;;;;;;;71.32;45.40;;;20.00;99.90;;;;;;5064108;28;20414;-65
2023/05/12 07:32:05;;;;;;;67.25;43.97;;;18.60;99.90;;;;;;5070544;28;20525;-64
2023/05/12 07:34:32;;;;;;;77.50;45.45;;;18.80;99.90;;;;;;5069283;28;20052;-64
2023/05/12 07:37:00;;;;;;;66.40;43.80;;;18.70;99.90;;;;;;5069059;28;20454;-64
2023/05/12 07:39:26;;;;;;;65.05;43.70;;;18.20;99.90;;;;;;5067400;28;20444;-65
2023/05/12 07:41:52;;;;;;;69.10;44.53;;;18.90;99.90;;;;;;5069367;28;20101;-64
2023/05/12 07:44:18;;;;;;;61.60;41.63;;;18.10;99.90;;;;;;5065421;28;20045;-65
2023/05/12 07:46:44;;;;;;;67.13;43.15;;;19.70;99.90;;;;;;5069493;28;20039;-64
2023/05/12 07:49:10;;;;;;;63.15;42.38;;;18.10;99.90;;;;;;5066752;28;20087;-64
2023/05/12 07:51:36;;;;;;;60.15;40.67;;;19.80;99.90;;;;;;5066151;28;20513;-63
2023/05/12 07:54:01;;;;;;;64.47;40.80;;;18.80;99.90;;;;;;5060341;28;20040;-62
2023/05/12 07:56:27;;;;;;;57.22;40.03;;;19.80;99.90;;;;;;5065694;28;20037;-63
2023/05/12 07:58:52;;;;;;;52.85;38.45;;;20.00;99.90;;;;;;5066083;28;20067;-63
2023/05/12 08:01:18;;;;;;;53.88;36.95;;;20.60;99.90;;;;;;5066108;28;20044;-65
2023/05/12 08:03:44;;;;;;;58.55;39.65;;;20.10;99.90;;;;;;5057189;28;20044;-65
2023/05/12 08:06:09;;;;;;;56.70;35.95;;;18.90;99.90;;;;;;5085669;28;20032;-65
2023/05/12 08:08:35;;;;;;;53.50;37.33;;;20.60;99.90;;;;;;5069011;28;20055;-65
2023/05/12 08:11:01;;;;;;;50.47;36.30;;;19.40;99.90;;;;;;5068440;28;20461;-64
2023/05/12 08:13:26;;;;;;;61.10;39.15;;;20.20;99.90;;;;;;5069824;28;20495;-65
2023/05/12 08:15:52;;;;;;;56.15;37.95;;;19.50;99.90;;;;;;5067269;28;20379;-65
2023/05/12 08:18:18;;;;;;;58.08;39.67;;;20.90;99.90;;;;;;5043263;28;20483;-64
2023/05/12 08:20:43;;;;;;;49.53;35.38;;;20.60;99.90;;;;;;5043356;28;20516;-65
2023/05/12 08:23:09;;;;;;;55.72;36.92;;;21.00;99.90;;;;;;5069154;28;20044;-64
2023/05/12 08:25:36;;;;;;;50.72;34.97;;;19.90;99.90;;;;;;5065797;28;20040;-65
2023/05/12 08:28:02;;;;;;;53.42;36.10;;;20.40;99.90;;;;;;5068918;28;20048;-65
2023/05/12 08:30:27;;;;;;;50.35;35.38;;;20.20;99.90;;;;;;5067566;28;20127;-64
2023/05/12 08:32:54;;;;;;;45.85;33.03;;;19.90;99.90;;;;;;5068187;28;20139;-64
2023/05/12 08:35:20;;;;;;;48.90;34.10;;;20.60;99.90;;;;;;5050937;28;20056;-65
2023/05/12 08:37:45;;;;;;;44.50;32.42;;;20.20;99.90;;;;;;5069008;28;20075;-65
2023/05/12 08:40:16;;;;;;;40.33;30.67;;;20.90;99.90;;;;;;5066475;28;20071;-65
2023/05/12 08:42:44;;;;;;;38.60;29.35;;;20.10;99.90;;;;;;5068413;28;20044;-64
2023/05/12 08:45:10;;;;;;;38.72;28.63;;;20.10;99.90;;;;;;5067892;28;20458;-65
2023/05/12 08:47:37;;;;;;;37.75;28.92;;;20.90;99.90;;;;;;5068324;28;20071;-64
2023/05/12 08:50:04;;;;;;;41.45;30.05;;;20.50;99.90;;;;;;5066294;28;20119;-65
2023/05/12 08:52:32;;;;;;;42.13;29.42;;;20.90;99.90;;;;;;5069228;28;20072;-65
2023/05/12 08:54:58;;;;;;;37.03;27.48;;;20.90;99.90;;;;;;5051765;28;20037;-65
2023/05/12 08:57:25;;;;;;;33.30;26.80;;;21.10;99.90;;;;;;5041851;28;20044;-65
2023/05/12 08:59:55;;;;;;;35.67;26.92;;;21.30;99.90;;;;;;5064519;28;20474;-64
2023/05/12 09:02:22;;;;;;;36.53;28.88;;;20.60;99.90;;;;;;5066124;28;20087;-65
2023/05/12 09:04:49;;;;;;;33.45;25.55;;;21.30;99.90;;;;;;5064530;28;20538;-65
2023/05/12 09:07:17;;;;;;;35.38;26.85;;;21.50;99.90;;;;;;5067253;28;20040;-64
2023/05/12 09:09:45;;;;;;;35.05;26.77;;;21.00;99.90;;;;;;5067129;28;20044;-65
2023/05/12 09:12:14;;;;;;;33.70;25.27;;;21.50;99.90;;;;;;5068361;28;20087;-64
2023/05/12 09:14:40;;;;;;;39.90;25.95;;;21.10;99.90;;;;;;5068725;28;20115;-65
2023/05/12 09:17:06;;;;;;;37.60;26.67;;;21.60;99.90;;;;;;5065377;28;20040;-65
2023/05/12 09:19:33;;;;;;;27.88;23.70;;;21.40;99.90;;;;;;5068861;28;20344;-65
2023/05/12 09:21:59;;;;;;;29.33;23.23;;;21.90;99.90;;;;;;5066573;28;20063;-65
2023/05/12 09:24:38;;;;;;;25.65;22.60;;;22.10;99.90;;;;;;5066704;28;20088;-65
2023/05/12 09:27:05;;;;;;;26.55;21.95;;;22.40;99.90;;;;;;5055460;28;20086;-65
2023/05/12 09:29:32;;;;;;;25.75;21.90;;;22.10;99.90;;;;;;5066766;28;20049;-65
2023/05/12 09:32:00;;;;;;;27.80;22.23;;;22.50;99.90;;;;;;5057125;28;20040;-65
2023/05/12 09:34:31;;;;;;;30.55;23.42;;;22.80;99.90;;;;;;5079237;28;20048;-65
2023/05/12 09:36:58;;;;;;;32.90;23.55;;;23.00;99.90;;;;;;5056810;28;20051;-65
2023/05/12 09:39:24;;;;;;;27.98;22.52;;;23.20;99.90;;;;;;5067778;28;20094;-65
2023/05/12 09:41:51;;;;;;;32.33;23.38;;;23.50;99.90;;;;;;5071526;28;20049;-65
2023/05/12 09:44:17;;;;;;;32.75;23.55;;;23.30;99.90;;;;;;5071050;28;20037;-65
2023/05/12 09:46:43;;;;;;;34.70;24.98;;;23.00;99.90;;;;;;5073027;28;20045;-65
2023/05/12 09:49:09;;;;;;;30.38;24.88;;;23.30;99.90;;;;;;5071871;28;20379;-65
2023/05/12 09:51:34;;;;;;;26.92;23.90;;;23.10;99.90;;;;;;5068186;28;20095;-64
2023/05/12 09:54:00;;;;;;;27.65;24.10;;;23.20;99.90;;;;;;5066919;28;20032;-65
2023/05/12 09:56:28;;;;;;;28.02;25.02;;;23.10;99.90;;;;;;5060343;28;20037;-64
2023/05/12 09:58:55;;;;;;;29.35;25.45;;;23.10;1.00;;;;;;5070642;28;20056;-65
2023/05/12 10:01:21;;;;;;;27.92;25.00;;;23.40;1.00;;;;;;5070113;28;20044;-65
2023/05/12 10:03:53;;;;;;;29.00;24.73;;;23.40;1.00;;;;;;5070186;28;20190;-65
2023/05/12 10:06:30;;;;;;;33.08;26.27;;;23.20;99.90;;;;;;5070477;28;20422;-65
2023/05/12 10:09:19;;;;;;;37.28;27.85;;;23.00;99.90;;;;;;5070841;28;20396;-65
2023/05/12 10:11:46;;;;;;;34.60;26.35;;;23.30;1.00;;;;;;5065698;28;20601;-65
2023/05/12 10:14:12;;;;;;;38.13;28.33;;;23.10;99.90;;;;;;5068549;28;20041;-64
2023/05/12 10:16:40;;;;;;;31.50;28.10;;;23.10;99.90;;;;;;5065612;28;20135;-61
2023/05/12 10:19:07;;;;;;;35.70;29.20;;;23.40;99.90;;;;;;5064903;28;20426;-64
2023/05/12 10:21:34;;;;;;;33.42;29.58;;;23.30;99.90;;;;;;5084075;28;20056;-65
2023/05/12 10:24:02;;;;;;;35.60;28.70;;;23.60;99.90;;;;;;5066814;28;20127;-67
2023/05/12 10:26:30;;;;;;;33.35;29.73;;;23.50;1.00;;;;;;5064494;28;20045;-67
2023/05/12 10:28:57;;;;;;;39.40;31.33;;;23.40;1.00;;;;;;5066757;28;20040;-67
2023/05/12 10:31:23;;;;;;;34.67;30.95;;;23.50;99.90;;;;;;5067875;28;20041;-67
2023/05/12 10:34:00;;;;;;;34.88;31.08;;;23.30;1.00;;;;;;5068633;28;20135;-67
2023/05/12 10:36:26;;;;;;;34.95;28.23;;;23.70;99.90;;;;;;5067616;28;20464;-68
2023/05/12 10:38:52;;;;;;;31.98;28.25;;;23.70;99.90;;;;;;5067662;28;20059;-68
2023/05/12 10:41:31;;;;;;;32.28;27.90;;;23.40;99.90;;;;;;5068190;28;20545;-68
2023/05/12 10:43:57;;;;;;;33.40;29.80;;;23.60;1.00;;;;;;5067789;28;20184;-68
2023/05/12 10:46:25;;;;;;;34.10;28.80;;;23.70;1.00;;;;;;5070062;28;20048;-67
2023/05/12 10:49:03;;;;;;;32.67;28.67;;;23.70;99.90;;;;;;5069430;28;20040;-68
2023/05/12 10:51:44;;;;;;;34.17;29.73;;;23.60;99.90;;;;;;5044270;28;20041;-68
2023/05/12 10:54:17;;;;;;;32.30;26.42;;;23.50;1.00;;;;;;5062848;28;20128;-67
2023/05/12 10:56:43;;;;;;;31.05;27.15;;;23.40;99.90;;;;;;5066665;28;20102;-67
2023/05/12 10:59:17;;;;;;;32.90;28.70;;;23.30;99.90;;;;;;5062341;28;20072;-68
2023/05/12 11:02:03;;;;;;;34.47;29.85;;;23.20;99.90;;;;;;5069289;28;20135;-66
2023/05/12 11:04:48;;;;;;;35.00;27.10;;;23.30;99.90;;;;;;5069257;28;20551;-66
2023/05/12 11:07:18;;;;;;;29.58;26.40;;;23.40;99.90;;;;;;5067936;28;20055;-68
2023/05/12 11:09:45;;;;;;;38.72;32.92;;;23.50;99.90;;;;;;5068886;28;20055;-67
2023/05/12 11:12:12;;;;;;;34.13;28.67;;;23.90;99.90;;;;;;5064364;28;20040;-66
2023/05/12 11:14:40;;;;;;;35.35;31.17;;;23.40;99.90;;;;;;5066464;28;20403;-68
2023/05/12 11:17:06;;;;;;;40.85;33.78;;;23.70;99.90;;;;;;5066053;28;20504;-67
2023/05/12 11:19:32;;;;;;;46.28;36.92;;;23.20;99.90;;;;;;5065486;28;20125;-66
2023/05/12 11:22:06;;;;;;;43.08;35.88;;;23.70;97.20;;;;;;5069243;28;20426;-65
2023/05/12 11:24:35;;;;;;;46.67;37.38;;;23.20;45.90;;;;;;5064371;28;20048;-66
2023/05/12 11:27:03;;;;;;;38.20;34.13;;;23.70;99.90;;;;;;5067622;28;20076;-65
2023/05/12 11:29:28;;;;;;;39.00;34.25;;;23.50;99.90;;;;;;5050271;28;20137;-67
2023/05/12 11:31:54;;;;;;;35.83;31.98;;;23.20;99.90;;;;;;5067691;28;20098;-66
2023/05/12 11:34:22;;;;;;;36.53;32.63;;;23.20;99.90;;;;;;5065400;28;20040;-65
2023/05/12 11:36:49;;;;;;;40.58;33.58;;;23.30;48.80;;;;;;5067949;28;20071;-67
2023/05/12 11:39:21;;;;;;;36.50;31.92;;;23.30;99.90;;;;;;5066021;28;20051;-65
2023/05/12 11:41:48;;;;;;;37.30;32.15;;;23.50;6.60;;;;;;5062087;28;20071;-67
2023/05/12 11:44:18;;;;;;;37.28;33.33;;;23.20;1.00;;;;;;5063039;28;20561;-66
2023/05/12 11:47:10;;;;;;;35.63;31.83;;;23.50;99.90;;;;;;5069408;28;20444;-66
2023/05/12 11:49:49;;;;;;;37.35;32.17;;;23.20;1.00;;;;;;5068989;28;20113;-66
2023/05/12 11:52:16;;;;;;;32.97;27.90;;;23.40;1.00;;;;;;5068759;28;20046;-66
2023/05/12 11:55:02;;;;;;;32.42;29.02;;;23.20;99.90;;;;;;5060692;28;20363;-65
2023/05/12 11:57:31;;;;;;;33.47;26.38;;;23.30;99.90;;;;;;5068368;28;20040;-66
2023/05/12 12:00:02;;;;;;;33.17;29.50;;;23.20;20.60;;;;;;5067605;28;20487;-66
2023/05/12 12:02:27;;;;;;;34.72;28.60;;;23.20;3.80;;;;;;5066153;28;20071;-66
2023/05/12 12:04:53;;;;;;;31.73;28.40;;;23.10;99.90;;;;;;5064685;28;20498;-65
2023/05/12 12:07:35;;;;;;;34.75;27.95;;;23.30;99.90;;;;;;5064941;28;20038;-65
2023/05/12 12:10:21;;;;;;;35.17;29.52;;;23.20;99.90;;;;;;5063366;28;20044;-67
2023/05/12 12:12:46;;;;;;;30.92;27.60;;;23.20;99.90;;;;;;5061504;28;20060;-67
2023/05/12 12:15:12;;;;;;;28.77;25.83;;;23.30;99.90;;;;;;5063915;28;20032;-66
2023/05/12 12:17:38;;;;;;;28.10;24.92;;;23.20;19.20;;;;;;5061835;28;20068;-66
2023/05/12 12:20:04;;;;;;;29.35;26.25;;;23.10;1.00;;;;;;5061622;28;21867;-65
2023/05/12 12:22:32;;;;;;;29.13;26.23;;;23.00;99.90;;;;;;5067553;28;20051;-66
2023/05/12 12:24:59;;;;;;;33.50;27.10;;;22.90;99.90;;;;;;5065565;28;20509;-65